sensor_id;sensor_type;location;lat;lon;timestamp;P1;durP1;ratioP1;P2;durP2;ratioP2
57395;SDS011;43222;52.912;6.940;2022-12-18T00:01:18;111.18;;;39.47;;
57395;SDS011;43222;52.912;6.940;2022-12-18T00:03:45;113.57;;;41.40;;
57395;SDS011;43222;52.912;6.940;2022-12-18T00:06:11;110.65;;;40.15;;
57395;SDS011;43222;52.912;6.940;2022-12-18T00:08:39;114.32;;;39.88;;
57395;SDS011;43222;52.912;6.940;2022-12-18T00:11:05;122.70;;;42.92;;
57395;SDS011;43222;52.912;6.940;2022-12-18T00:13:32;110.22;;;41.35;;
57395;SDS011;43222;52.912;6.940;2022-12-18T00:16:02;114.35;;;40.10;;
57395;SDS011;43222;52.912;6.940;2022-12-18T00:18:28;114.30;;;42.33;;
57395;SDS011;43222;52.912;6.940;2022-12-18T00:20:57;117.25;;;41.45;;
57395;SDS011;43222;52.912;6.940;2022-12-18T00:23:24;115.88;;;41.42;;
57395;SDS011;43222;52.912;6.940;2022-12-18T00:25:50;113.90;;;43.08;;
57395;SDS011;43222;52.912;6.940;2022-12-18T00:28:16;119.30;;;42.58;;
57395;SDS011;43222;52.912;6.940;2022-12-18T00:30:42;107.07;;;40.47;;
57395;SDS011;43222;52.912;6.940;2022-12-18T00:33:08;107.20;;;40.88;;
57395;SDS011;43222;52.912;6.940;2022-12-18T00:35:34;103.68;;;38.60;;
57395;SDS011;43222;52.912;6.940;2022-12-18T00:38:00;97.35;;;40.65;;
57395;SDS011;43222;52.912;6.940;2022-12-18T00:40:26;98.75;;;39.83;;
57395;SDS011;43222;52.912;6.940;2022-12-18T00:42:52;100.03;;;39.47;;
57395;SDS011;43222;52.912;6.940;2022-12-18T00:45:24;104.00;;;40.88;;
57395;SDS011;43222;52.912;6.940;2022-12-18T00:47:51;103.95;;;39.13;;
57395;SDS011;43222;52.912;6.940;2022-12-18T00:50:17;108.43;;;40.97;;
57395;SDS011;43222;52.912;6.940;2022-12-18T00:52:44;100.63;;;41.28;;
57395;SDS011;43222;52.912;6.940;2022-12-18T00:55:10;102.55;;;39.90;;
57395;SDS011;43222;52.912;6.940;2022-12-18T00:57:36;98.22;;;39.55;;
57395;SDS011;43222;52.912;6.940;2022-12-18T01:00:03;98.22;;;39.97;;
57395;SDS011;43222;52.912;6.940;2022-12-18T01:02:29;111.10;;;42.90;;
57395;SDS011;43222;52.912;6.940;2022-12-18T01:04:55;99.00;;;40.55;;
57395;SDS011;43222;52.912;6.940;2022-12-18T01:07:21;101.50;;;38.90;;
57395;SDS011;43222;52.912;6.940;2022-12-18T01:09:47;106.65;;;39.55;;
57395;SDS011;43222;52.912;6.940;2022-12-18T01:12:14;101.90;;;41.50;;
57395;SDS011;43222;52.912;6.940;2022-12-18T01:14:40;101.35;;;39.95;;
57395;SDS011;43222;52.912;6.940;2022-12-18T01:17:06;100.63;;;38.83;;
57395;SDS011;43222;52.912;6.940;2022-12-18T01:19:32;102.72;;;39.70;;
57395;SDS011;43222;52.912;6.940;2022-12-18T01:21:58;104.07;;;40.25;;
57395;SDS011;43222;52.912;6.940;2022-12-18T01:24:24;96.25;;;39.05;;
57395;SDS011;43222;52.912;6.940;2022-12-18T01:26:51;102.93;;;39.35;;
57395;SDS011;43222;52.912;6.940;2022-12-18T01:29:17;95.70;;;37.63;;
57395;SDS011;43222;52.912;6.940;2022-12-18T01:31:43;97.05;;;38.28;;
57395;SDS011;43222;52.912;6.940;2022-12-18T01:34:09;98.13;;;38.28;;
57395;SDS011;43222;52.912;6.940;2022-12-18T01:36:36;93.22;;;37.28;;
57395;SDS011;43222;52.912;6.940;2022-12-18T01:39:05;96.30;;;38.20;;
57395;SDS011;43222;52.912;6.940;2022-12-18T01:41:32;95.57;;;38.03;;
57395;SDS011;43222;52.912;6.940;2022-12-18T01:47:01;93.28;;;37.40;;
57395;SDS011;43222;52.912;6.940;2022-12-18T01:49:28;107.82;;;40.63;;
57395;SDS011;43222;52.912;6.940;2022-12-18T01:51:54;111.13;;;40.42;;
57395;SDS011;43222;52.912;6.940;2022-12-18T01:54:20;114.80;;;40.85;;
57395;SDS011;43222;52.912;6.940;2022-12-18T01:56:46;115.00;;;43.10;;
57395;SDS011;43222;52.912;6.940;2022-12-18T01:59:12;109.30;;;40.35;;
57395;SDS011;43222;52.912;6.940;2022-12-18T02:01:38;117.45;;;41.45;;
57395;SDS011;43222;52.912;6.940;2022-12-18T02:04:23;111.65;;;41.53;;
57395;SDS011;43222;52.912;6.940;2022-12-18T02:06:51;117.30;;;43.45;;
57395;SDS011;43222;52.912;6.940;2022-12-18T02:09:19;118.68;;;41.65;;
57395;SDS011;43222;52.912;6.940;2022-12-18T02:11:50;124.75;;;43.05;;
57395;SDS011;43222;52.912;6.940;2022-12-18T02:17:43;105.30;;;40.50;;
57395;SDS011;43222;52.912;6.940;2022-12-18T02:25:22;89.93;;;36.80;;
57395;SDS011;43222;52.912;6.940;2022-12-18T02:27:52;88.40;;;34.38;;
57395;SDS011;43222;52.912;6.940;2022-12-18T02:30:18;87.05;;;35.25;;
57395;SDS011;43222;52.912;6.940;2022-12-18T02:32:45;82.35;;;34.58;;
57395;SDS011;43222;52.912;6.940;2022-12-18T02:35:13;92.25;;;35.45;;
57395;SDS011;43222;52.912;6.940;2022-12-18T02:37:41;82.88;;;33.42;;
57395;SDS011;43222;52.912;6.940;2022-12-18T02:40:09;87.30;;;34.65;;
57395;SDS011;43222;52.912;6.940;2022-12-18T02:42:36;78.63;;;34.75;;
57395;SDS011;43222;52.912;6.940;2022-12-18T02:45:02;90.90;;;33.63;;
57395;SDS011;43222;52.912;6.940;2022-12-18T02:47:31;79.63;;;33.38;;
57395;SDS011;43222;52.912;6.940;2022-12-18T02:50:02;68.95;;;30.92;;
57395;SDS011;43222;52.912;6.940;2022-12-18T02:57:40;73.32;;;30.67;;
57395;SDS011;43222;52.912;6.940;2022-12-18T03:00:10;73.80;;;31.02;;
57395;SDS011;43222;52.912;6.940;2022-12-18T03:02:39;68.63;;;29.05;;
57395;SDS011;43222;52.912;6.940;2022-12-18T03:05:18;71.88;;;29.33;;
57395;SDS011;43222;52.912;6.940;2022-12-18T03:07:51;63.45;;;27.60;;
57395;SDS011;43222;52.912;6.940;2022-12-18T03:10:19;72.97;;;30.48;;
57395;SDS011;43222;52.912;6.940;2022-12-18T03:12:48;69.10;;;29.88;;
57395;SDS011;43222;52.912;6.940;2022-12-18T03:15:26;65.30;;;28.83;;
57395;SDS011;43222;52.912;6.940;2022-12-18T03:18:04;70.55;;;29.45;;
57395;SDS011;43222;52.912;6.940;2022-12-18T03:20:31;62.50;;;26.50;;
57395;SDS011;43222;52.912;6.940;2022-12-18T03:23:09;69.15;;;30.00;;
57395;SDS011;43222;52.912;6.940;2022-12-18T03:25:37;69.70;;;27.73;;
57395;SDS011;43222;52.912;6.940;2022-12-18T03:28:04;62.70;;;28.23;;
57395;SDS011;43222;52.912;6.940;2022-12-18T03:30:33;71.28;;;29.70;;
57395;SDS011;43222;52.912;6.940;2022-12-18T03:33:10;70.32;;;29.60;;
57395;SDS011;43222;52.912;6.940;2022-12-18T03:35:39;65.82;;;29.35;;
57395;SDS011;43222;52.912;6.940;2022-12-18T03:38:06;72.80;;;28.58;;
57395;SDS011;43222;52.912;6.940;2022-12-18T03:43:35;67.93;;;28.48;;
57395;SDS011;43222;52.912;6.940;2022-12-18T03:46:05;58.17;;;25.88;;
57395;SDS011;43222;52.912;6.940;2022-12-18T03:48:35;61.95;;;28.58;;
57395;SDS011;43222;52.912;6.940;2022-12-18T03:53:58;68.13;;;28.20;;
57395;SDS011;43222;52.912;6.940;2022-12-18T03:56:26;60.78;;;26.60;;
57395;SDS011;43222;52.912;6.940;2022-12-18T03:58:53;68.18;;;26.20;;
57395;SDS011;43222;52.912;6.940;2022-12-18T04:01:20;57.53;;;26.38;;
57395;SDS011;43222;52.912;6.940;2022-12-18T04:03:48;59.05;;;26.85;;
57395;SDS011;43222;52.912;6.940;2022-12-18T04:06:15;61.25;;;25.50;;
57395;SDS011;43222;52.912;6.940;2022-12-18T04:08:42;56.47;;;26.55;;
57395;SDS011;43222;52.912;6.940;2022-12-18T04:11:08;61.22;;;27.30;;
57395;SDS011;43222;52.912;6.940;2022-12-18T04:13:35;56.10;;;25.45;;
57395;SDS011;43222;52.912;6.940;2022-12-18T04:16:01;59.38;;;25.90;;
57395;SDS011;43222;52.912;6.940;2022-12-18T04:18:27;59.83;;;26.65;;
57395;SDS011;43222;52.912;6.940;2022-12-18T04:20:54;60.33;;;24.95;;
57395;SDS011;43222;52.912;6.940;2022-12-18T04:23:20;54.90;;;26.02;;
57395;SDS011;43222;52.912;6.940;2022-12-18T04:25:46;55.47;;;24.55;;
57395;SDS011;43222;52.912;6.940;2022-12-18T04:28:12;59.55;;;26.98;;
57395;SDS011;43222;52.912;6.940;2022-12-18T04:30:39;49.47;;;23.58;;
57395;SDS011;43222;52.912;6.940;2022-12-18T04:33:09;53.70;;;24.88;;
57395;SDS011;43222;52.912;6.940;2022-12-18T04:35:35;54.88;;;24.92;;
57395;SDS011;43222;52.912;6.940;2022-12-18T04:38:01;51.38;;;24.40;;
57395;SDS011;43222;52.912;6.940;2022-12-18T04:40:27;49.65;;;23.27;;
57395;SDS011;43222;52.912;6.940;2022-12-18T04:42:53;54.28;;;24.13;;
57395;SDS011;43222;52.912;6.940;2022-12-18T04:45:19;54.65;;;24.90;;
57395;SDS011;43222;52.912;6.940;2022-12-18T04:47:45;55.03;;;24.35;;
57395;SDS011;43222;52.912;6.940;2022-12-18T04:50:11;50.60;;;24.08;;
57395;SDS011;43222;52.912;6.940;2022-12-18T04:52:37;49.45;;;22.95;;
57395;SDS011;43222;52.912;6.940;2022-12-18T04:55:03;53.70;;;24.83;;
57395;SDS011;43222;52.912;6.940;2022-12-18T04:57:29;51.92;;;24.48;;
57395;SDS011;43222;52.912;6.940;2022-12-18T04:59:55;46.75;;;21.98;;
57395;SDS011;43222;52.912;6.940;2022-12-18T05:02:21;54.63;;;24.45;;
57395;SDS011;43222;52.912;6.940;2022-12-18T05:04:48;50.20;;;23.75;;
57395;SDS011;43222;52.912;6.940;2022-12-18T05:07:14;48.35;;;23.50;;
57395;SDS011;43222;52.912;6.940;2022-12-18T05:09:40;51.05;;;23.10;;
57395;SDS011;43222;52.912;6.940;2022-12-18T05:12:06;54.38;;;24.40;;
57395;SDS011;43222;52.912;6.940;2022-12-18T05:14:32;54.22;;;24.27;;
57395;SDS011;43222;52.912;6.940;2022-12-18T05:16:58;47.70;;;24.08;;
57395;SDS011;43222;52.912;6.940;2022-12-18T05:19:24;50.58;;;23.45;;
57395;SDS011;43222;52.912;6.940;2022-12-18T05:21:50;48.58;;;23.95;;
57395;SDS011;43222;52.912;6.940;2022-12-18T05:24:16;48.00;;;22.73;;
57395;SDS011;43222;52.912;6.940;2022-12-18T05:26:42;49.58;;;23.73;;
57395;SDS011;43222;52.912;6.940;2022-12-18T05:29:08;48.70;;;23.65;;
57395;SDS011;43222;52.912;6.940;2022-12-18T05:31:37;51.67;;;24.90;;
57395;SDS011;43222;52.912;6.940;2022-12-18T05:34:03;46.95;;;23.83;;
57395;SDS011;43222;52.912;6.940;2022-12-18T05:36:29;47.97;;;23.35;;
57395;SDS011;43222;52.912;6.940;2022-12-18T05:38:55;49.67;;;24.45;;
57395;SDS011;43222;52.912;6.940;2022-12-18T05:41:21;46.38;;;23.50;;
57395;SDS011;43222;52.912;6.940;2022-12-18T05:43:47;47.15;;;23.55;;
57395;SDS011;43222;52.912;6.940;2022-12-18T05:46:15;49.88;;;23.98;;
57395;SDS011;43222;52.912;6.940;2022-12-18T05:48:42;47.13;;;23.13;;
57395;SDS011;43222;52.912;6.940;2022-12-18T05:51:13;49.53;;;25.30;;
57395;SDS011;43222;52.912;6.940;2022-12-18T05:53:40;45.92;;;22.55;;
57395;SDS011;43222;52.912;6.940;2022-12-18T05:56:07;43.85;;;22.17;;
57395;SDS011;43222;52.912;6.940;2022-12-18T05:58:34;45.95;;;22.45;;
57395;SDS011;43222;52.912;6.940;2022-12-18T06:01:33;48.55;;;23.30;;
57395;SDS011;43222;52.912;6.940;2022-12-18T06:03:52;47.58;;;22.75;;
57395;SDS011;43222;52.912;6.940;2022-12-18T06:06:22;46.25;;;21.95;;
57395;SDS011;43222;52.912;6.940;2022-12-18T06:08:49;45.08;;;22.63;;
57395;SDS011;43222;52.912;6.940;2022-12-18T06:11:17;49.67;;;23.92;;
57395;SDS011;43222;52.912;6.940;2022-12-18T06:13:43;51.10;;;25.25;;
57395;SDS011;43222;52.912;6.940;2022-12-18T06:16:09;52.15;;;25.85;;
57395;SDS011;43222;52.912;6.940;2022-12-18T06:18:35;52.40;;;25.77;;
57395;SDS011;43222;52.912;6.940;2022-12-18T06:21:01;53.97;;;26.50;;
57395;SDS011;43222;52.912;6.940;2022-12-18T06:23:27;53.25;;;25.73;;
57395;SDS011;43222;52.912;6.940;2022-12-18T06:25:53;49.60;;;25.77;;
57395;SDS011;43222;52.912;6.940;2022-12-18T06:28:19;50.55;;;26.10;;
57395;SDS011;43222;52.912;6.940;2022-12-18T06:30:46;49.25;;;25.60;;
57395;SDS011;43222;52.912;6.940;2022-12-18T06:33:13;47.70;;;23.67;;
57395;SDS011;43222;52.912;6.940;2022-12-18T06:35:40;49.88;;;25.50;;
57395;SDS011;43222;52.912;6.940;2022-12-18T06:38:06;47.28;;;24.88;;
57395;SDS011;43222;52.912;6.940;2022-12-18T06:40:32;48.40;;;25.25;;
57395;SDS011;43222;52.912;6.940;2022-12-18T06:42:58;49.28;;;24.85;;
57395;SDS011;43222;52.912;6.940;2022-12-18T06:45:24;46.75;;;23.13;;
57395;SDS011;43222;52.912;6.940;2022-12-18T06:47:50;42.63;;;23.08;;
57395;SDS011;43222;52.912;6.940;2022-12-18T06:50:16;44.83;;;22.85;;
57395;SDS011;43222;52.912;6.940;2022-12-18T06:52:42;46.97;;;23.90;;
57395;SDS011;43222;52.912;6.940;2022-12-18T06:55:09;48.75;;;24.55;;
57395;SDS011;43222;52.912;6.940;2022-12-18T06:57:35;45.53;;;22.30;;
57395;SDS011;43222;52.912;6.940;2022-12-18T07:00:01;46.70;;;24.20;;
57395;SDS011;43222;52.912;6.940;2022-12-18T07:02:28;45.63;;;23.05;;
57395;SDS011;43222;52.912;6.940;2022-12-18T07:04:54;44.50;;;22.67;;
57395;SDS011;43222;52.912;6.940;2022-12-18T07:07:20;42.45;;;20.65;;
57395;SDS011;43222;52.912;6.940;2022-12-18T07:09:46;43.55;;;22.67;;
57395;SDS011;43222;52.912;6.940;2022-12-18T07:12:14;40.20;;;21.90;;
57395;SDS011;43222;52.912;6.940;2022-12-18T07:14:40;37.88;;;19.92;;
57395;SDS011;43222;52.912;6.940;2022-12-18T07:17:06;41.70;;;20.35;;
57395;SDS011;43222;52.912;6.940;2022-12-18T07:19:32;41.90;;;20.35;;
57395;SDS011;43222;52.912;6.940;2022-12-18T07:21:58;37.05;;;20.15;;
57395;SDS011;43222;52.912;6.940;2022-12-18T07:24:24;36.75;;;18.92;;
57395;SDS011;43222;52.912;6.940;2022-12-18T07:26:50;38.20;;;19.40;;
57395;SDS011;43222;52.912;6.940;2022-12-18T07:29:16;39.53;;;20.20;;
57395;SDS011;43222;52.912;6.940;2022-12-18T07:31:42;38.35;;;20.13;;
57395;SDS011;43222;52.912;6.940;2022-12-18T07:34:12;44.55;;;20.75;;
57395;SDS011;43222;52.912;6.940;2022-12-18T07:36:38;39.00;;;19.48;;
57395;SDS011;43222;52.912;6.940;2022-12-18T07:39:04;37.55;;;19.52;;
57395;SDS011;43222;52.912;6.940;2022-12-18T07:41:30;38.80;;;18.83;;
57395;SDS011;43222;52.912;6.940;2022-12-18T07:43:57;40.78;;;17.95;;
57395;SDS011;43222;52.912;6.940;2022-12-18T07:46:23;37.00;;;18.10;;
57395;SDS011;43222;52.912;6.940;2022-12-18T07:48:49;37.97;;;18.02;;
57395;SDS011;43222;52.912;6.940;2022-12-18T07:51:15;33.95;;;17.67;;
57395;SDS011;43222;52.912;6.940;2022-12-18T07:53:41;35.08;;;17.50;;
57395;SDS011;43222;52.912;6.940;2022-12-18T07:56:08;35.15;;;18.10;;
57395;SDS011;43222;52.912;6.940;2022-12-18T07:58:35;32.40;;;17.17;;
57395;SDS011;43222;52.912;6.940;2022-12-18T08:01:05;34.33;;;17.42;;
57395;SDS011;43222;52.912;6.940;2022-12-18T08:03:32;31.88;;;17.23;;
57395;SDS011;43222;52.912;6.940;2022-12-18T08:05:58;34.47;;;18.25;;
57395;SDS011;43222;52.912;6.940;2022-12-18T08:08:25;33.28;;;17.20;;
57395;SDS011;43222;52.912;6.940;2022-12-18T08:10:51;35.63;;;16.50;;
57395;SDS011;43222;52.912;6.940;2022-12-18T08:13:17;30.55;;;16.48;;
57395;SDS011;43222;52.912;6.940;2022-12-18T08:15:43;32.67;;;16.15;;
57395;SDS011;43222;52.912;6.940;2022-12-18T08:18:09;28.92;;;15.32;;
57395;SDS011;43222;52.912;6.940;2022-12-18T08:20:35;29.52;;;16.00;;
57395;SDS011;43222;52.912;6.940;2022-12-18T08:23:01;29.30;;;15.70;;
57395;SDS011;43222;52.912;6.940;2022-12-18T08:25:27;27.80;;;14.05;;
57395;SDS011;43222;52.912;6.940;2022-12-18T08:27:53;30.38;;;14.13;;
57395;SDS011;43222;52.912;6.940;2022-12-18T08:30:21;31.38;;;14.82;;
57395;SDS011;43222;52.912;6.940;2022-12-18T08:32:50;26.90;;;13.05;;
57395;SDS011;43222;52.912;6.940;2022-12-18T08:35:17;26.85;;;14.93;;
57395;SDS011;43222;52.912;6.940;2022-12-18T08:37:43;28.27;;;15.25;;
57395;SDS011;43222;52.912;6.940;2022-12-18T08:40:09;25.48;;;13.93;;
57395;SDS011;43222;52.912;6.940;2022-12-18T08:42:36;26.05;;;13.70;;
57395;SDS011;43222;52.912;6.940;2022-12-18T08:45:20;24.90;;;14.63;;
57395;SDS011;43222;52.912;6.940;2022-12-18T08:47:46;27.98;;;14.82;;
57395;SDS011;43222;52.912;6.940;2022-12-18T08:50:12;28.52;;;14.23;;
57395;SDS011;43222;52.912;6.940;2022-12-18T08:52:39;28.25;;;14.68;;
57395;SDS011;43222;52.912;6.940;2022-12-18T08:55:05;23.23;;;13.88;;
57395;SDS011;43222;52.912;6.940;2022-12-18T08:57:32;26.65;;;14.30;;
57395;SDS011;43222;52.912;6.940;2022-12-18T08:59:58;24.73;;;13.95;;
57395;SDS011;43222;52.912;6.940;2022-12-18T09:02:24;23.33;;;13.38;;
57395;SDS011;43222;52.912;6.940;2022-12-18T09:04:50;25.85;;;14.00;;
57395;SDS011;43222;52.912;6.940;2022-12-18T09:07:16;25.15;;;13.35;;
57395;SDS011;43222;52.912;6.940;2022-12-18T09:09:42;22.02;;;12.48;;
57395;SDS011;43222;52.912;6.940;2022-12-18T09:12:08;21.15;;;11.45;;
57395;SDS011;43222;52.912;6.940;2022-12-18T09:14:35;23.50;;;12.73;;
57395;SDS011;43222;52.912;6.940;2022-12-18T09:17:01;23.33;;;12.82;;
57395;SDS011;43222;52.912;6.940;2022-12-18T09:19:27;22.40;;;12.63;;
57395;SDS011;43222;52.912;6.940;2022-12-18T09:21:53;20.23;;;11.48;;
57395;SDS011;43222;52.912;6.940;2022-12-18T09:24:19;23.08;;;12.15;;
57395;SDS011;43222;52.912;6.940;2022-12-18T09:26:45;20.92;;;12.70;;
57395;SDS011;43222;52.912;6.940;2022-12-18T09:29:11;20.60;;;11.57;;
57395;SDS011;43222;52.912;6.940;2022-12-18T09:31:38;20.40;;;11.50;;
57395;SDS011;43222;52.912;6.940;2022-12-18T09:34:04;19.95;;;10.18;;
57395;SDS011;43222;52.912;6.940;2022-12-18T09:36:30;20.50;;;11.90;;
57395;SDS011;43222;52.912;6.940;2022-12-18T09:38:56;20.25;;;11.13;;
57395;SDS011;43222;52.912;6.940;2022-12-18T09:43:52;19.70;;;11.13;;
57395;SDS011;43222;52.912;6.940;2022-12-18T09:46:27;19.75;;;11.15;;
57395;SDS011;43222;52.912;6.940;2022-12-18T09:48:54;21.25;;;10.48;;
57395;SDS011;43222;52.912;6.940;2022-12-18T09:51:44;17.58;;;10.57;;
57395;SDS011;43222;52.912;6.940;2022-12-18T09:54:12;18.27;;;10.32;;
57395;SDS011;43222;52.912;6.940;2022-12-18T09:56:41;17.55;;;10.13;;
57395;SDS011;43222;52.912;6.940;2022-12-18T09:59:14;17.58;;;10.20;;
57395;SDS011;43222;52.912;6.940;2022-12-18T10:01:43;16.75;;;9.82;;
57395;SDS011;43222;52.912;6.940;2022-12-18T10:04:10;18.75;;;9.80;;
57395;SDS011;43222;52.912;6.940;2022-12-18T10:06:39;16.00;;;9.48;;
57395;SDS011;43222;52.912;6.940;2022-12-18T10:09:10;16.05;;;8.88;;
57395;SDS011;43222;52.912;6.940;2022-12-18T10:14:47;15.98;;;8.90;;
57395;SDS011;43222;52.912;6.940;2022-12-18T10:24:55;14.88;;;8.05;;
57395;SDS011;43222;52.912;6.940;2022-12-18T10:27:24;13.60;;;8.15;;
57395;SDS011;43222;52.912;6.940;2022-12-18T10:29:51;14.98;;;8.57;;
57395;SDS011;43222;52.912;6.940;2022-12-18T10:32:20;15.85;;;8.18;;
57395;SDS011;43222;52.912;6.940;2022-12-18T10:34:47;14.75;;;9.05;;
57395;SDS011;43222;52.912;6.940;2022-12-18T10:37:20;11.65;;;6.68;;
57395;SDS011;43222;52.912;6.940;2022-12-18T10:39:46;13.65;;;8.13;;
57395;SDS011;43222;52.912;6.940;2022-12-18T10:42:30;13.45;;;7.78;;
57395;SDS011;43222;52.912;6.940;2022-12-18T10:45:01;16.13;;;9.07;;
57395;SDS011;43222;52.912;6.940;2022-12-18T10:47:27;19.20;;;8.80;;
57395;SDS011;43222;52.912;6.940;2022-12-18T10:49:53;16.63;;;8.25;;
57395;SDS011;43222;52.912;6.940;2022-12-18T10:52:21;13.63;;;8.48;;
57395;SDS011;43222;52.912;6.940;2022-12-18T10:54:48;18.30;;;9.30;;
57395;SDS011;43222;52.912;6.940;2022-12-18T10:57:29;14.10;;;7.88;;
57395;SDS011;43222;52.912;6.940;2022-12-18T10:59:57;15.63;;;8.00;;
57395;SDS011;43222;52.912;6.940;2022-12-18T11:02:41;13.70;;;8.27;;
57395;SDS011;43222;52.912;6.940;2022-12-18T11:08:03;13.30;;;7.45;;
57395;SDS011;43222;52.912;6.940;2022-12-18T11:10:33;18.02;;;8.23;;
57395;SDS011;43222;52.912;6.940;2022-12-18T11:15:36;16.80;;;7.93;;
57395;SDS011;43222;52.912;6.940;2022-12-18T11:18:03;15.55;;;8.38;;
57395;SDS011;43222;52.912;6.940;2022-12-18T11:20:33;12.10;;;7.35;;
57395;SDS011;43222;52.912;6.940;2022-12-18T11:23:04;14.43;;;6.72;;
57395;SDS011;43222;52.912;6.940;2022-12-18T11:25:31;13.90;;;7.90;;
57395;SDS011;43222;52.912;6.940;2022-12-18T11:27:59;14.38;;;7.45;;
57395;SDS011;43222;52.912;6.940;2022-12-18T11:30:35;12.48;;;6.93;;
57395;SDS011;43222;52.912;6.940;2022-12-18T11:33:03;14.38;;;6.95;;
57395;SDS011;43222;52.912;6.940;2022-12-18T11:35:35;14.23;;;7.13;;
57395;SDS011;43222;52.912;6.940;2022-12-18T11:38:04;12.25;;;7.10;;
57395;SDS011;43222;52.912;6.940;2022-12-18T11:40:36;12.98;;;6.47;;
57395;SDS011;43222;52.912;6.940;2022-12-18T11:43:10;14.93;;;7.65;;
57395;SDS011;43222;52.912;6.940;2022-12-18T11:45:40;13.75;;;7.07;;
57395;SDS011;43222;52.912;6.940;2022-12-18T11:50:49;12.45;;;6.88;;
57395;SDS011;43222;52.912;6.940;2022-12-18T11:53:16;14.27;;;7.28;;
57395;SDS011;43222;52.912;6.940;2022-12-18T12:06:10;18.13;;;8.25;;
57395;SDS011;43222;52.912;6.940;2022-12-18T12:11:23;13.50;;;7.13;;
57395;SDS011;43222;52.912;6.940;2022-12-18T12:14:08;16.73;;;7.38;;
57395;SDS011;43222;52.912;6.940;2022-12-18T12:21:46;11.30;;;6.70;;
57395;SDS011;43222;52.912;6.940;2022-12-18T12:24:19;12.25;;;6.60;;
57395;SDS011;43222;52.912;6.940;2022-12-18T12:29:23;13.30;;;7.47;;
57395;SDS011;43222;52.912;6.940;2022-12-18T12:39:14;11.55;;;6.93;;
57395;SDS011;43222;52.912;6.940;2022-12-18T12:41:43;14.20;;;7.20;;
57395;SDS011;43222;52.912;6.940;2022-12-18T12:44:30;15.13;;;8.05;;
57395;SDS011;43222;52.912;6.940;2022-12-18T12:46:59;13.10;;;7.50;;
57395;SDS011;43222;52.912;6.940;2022-12-18T12:49:27;13.93;;;7.35;;
57395;SDS011;43222;52.912;6.940;2022-12-18T12:51:57;11.95;;;6.63;;
57395;SDS011;43222;52.912;6.940;2022-12-18T12:54:24;12.27;;;7.28;;
57395;SDS011;43222;52.912;6.940;2022-12-18T13:02:22;13.10;;;7.45;;
57395;SDS011;43222;52.912;6.940;2022-12-18T13:04:59;14.98;;;7.78;;
57395;SDS011;43222;52.912;6.940;2022-12-18T13:07:29;13.20;;;7.75;;
57395;SDS011;43222;52.912;6.940;2022-12-18T13:10:19;14.63;;;8.00;;
57395;SDS011;43222;52.912;6.940;2022-12-18T13:12:58;14.00;;;8.60;;
57395;SDS011;43222;52.912;6.940;2022-12-18T13:15:30;13.82;;;8.10;;
57395;SDS011;43222;52.912;6.940;2022-12-18T13:20:36;14.95;;;8.85;;
57395;SDS011;43222;52.912;6.940;2022-12-18T13:25:45;14.63;;;9.00;;
57395;SDS011;43222;52.912;6.940;2022-12-18T13:28:14;13.10;;;8.45;;
57395;SDS011;43222;52.912;6.940;2022-12-18T13:35:40;14.95;;;9.05;;
57395;SDS011;43222;52.912;6.940;2022-12-18T13:38:20;16.15;;;9.23;;
57395;SDS011;43222;52.912;6.940;2022-12-18T13:46:04;15.25;;;9.23;;
57395;SDS011;43222;52.912;6.940;2022-12-18T13:48:32;14.75;;;9.38;;
57395;SDS011;43222;52.912;6.940;2022-12-18T13:51:00;16.15;;;9.63;;
57395;SDS011;43222;52.912;6.940;2022-12-18T13:53:50;15.60;;;9.95;;
57395;SDS011;43222;52.912;6.940;2022-12-18T13:56:17;17.00;;;8.93;;
57395;SDS011;43222;52.912;6.940;2022-12-18T13:59:02;14.65;;;8.90;;
57395;SDS011;43222;52.912;6.940;2022-12-18T14:01:28;15.93;;;8.82;;
57395;SDS011;43222;52.912;6.940;2022-12-18T14:06:39;17.75;;;11.00;;
57395;SDS011;43222;52.912;6.940;2022-12-18T14:09:09;18.30;;;10.85;;
57395;SDS011;43222;52.912;6.940;2022-12-18T14:11:36;15.60;;;9.57;;
57395;SDS011;43222;52.912;6.940;2022-12-18T14:14:02;16.42;;;10.52;;
57395;SDS011;43222;52.912;6.940;2022-12-18T14:16:32;15.88;;;10.02;;
57395;SDS011;43222;52.912;6.940;2022-12-18T14:18:58;17.90;;;10.00;;
57395;SDS011;43222;52.912;6.940;2022-12-18T14:21:25;17.40;;;10.00;;
57395;SDS011;43222;52.912;6.940;2022-12-18T14:26:37;17.42;;;10.45;;
57395;SDS011;43222;52.912;6.940;2022-12-18T14:34:33;15.93;;;9.93;;
57395;SDS011;43222;52.912;6.940;2022-12-18T14:36:59;14.57;;;9.38;;
57395;SDS011;43222;52.912;6.940;2022-12-18T14:39:25;16.60;;;11.00;;
57395;SDS011;43222;52.912;6.940;2022-12-18T14:41:51;17.13;;;10.05;;
57395;SDS011;43222;52.912;6.940;2022-12-18T14:44:18;17.40;;;10.43;;
57395;SDS011;43222;52.912;6.940;2022-12-18T14:46:46;15.98;;;10.57;;
57395;SDS011;43222;52.912;6.940;2022-12-18T14:51:42;19.35;;;10.90;;
57395;SDS011;43222;52.912;6.940;2022-12-18T14:54:16;21.92;;;10.60;;
57395;SDS011;43222;52.912;6.940;2022-12-18T14:56:44;21.08;;;11.02;;
57395;SDS011;43222;52.912;6.940;2022-12-18T14:59:14;18.85;;;10.75;;
57395;SDS011;43222;52.912;6.940;2022-12-18T15:01:58;15.20;;;10.00;;
57395;SDS011;43222;52.912;6.940;2022-12-18T15:04:26;20.15;;;11.15;;
57395;SDS011;43222;52.912;6.940;2022-12-18T15:07:04;17.25;;;10.25;;
57395;SDS011;43222;52.912;6.940;2022-12-18T15:09:30;18.33;;;11.40;;
57395;SDS011;43222;52.912;6.940;2022-12-18T15:11:57;17.98;;;11.23;;
57395;SDS011;43222;52.912;6.940;2022-12-18T15:17:03;16.27;;;10.07;;
57395;SDS011;43222;52.912;6.940;2022-12-18T15:19:37;19.17;;;11.73;;
57395;SDS011;43222;52.912;6.940;2022-12-18T15:22:03;19.17;;;11.27;;
57395;SDS011;43222;52.912;6.940;2022-12-18T15:24:31;21.92;;;12.95;;
57395;SDS011;43222;52.912;6.940;2022-12-18T15:26:58;20.85;;;11.95;;
57395;SDS011;43222;52.912;6.940;2022-12-18T15:29:24;25.05;;;14.15;;
57395;SDS011;43222;52.912;6.940;2022-12-18T15:32:04;25.15;;;13.35;;
57395;SDS011;43222;52.912;6.940;2022-12-18T15:34:31;24.90;;;14.25;;
57395;SDS011;43222;52.912;6.940;2022-12-18T15:36:59;21.45;;;12.60;;
57395;SDS011;43222;52.912;6.940;2022-12-18T15:39:25;23.35;;;13.32;;
57395;SDS011;43222;52.912;6.940;2022-12-18T15:41:51;21.98;;;12.35;;
57395;SDS011;43222;52.912;6.940;2022-12-18T15:44:36;22.38;;;13.45;;
57395;SDS011;43222;52.912;6.940;2022-12-18T15:47:02;19.02;;;11.55;;
57395;SDS011;43222;52.912;6.940;2022-12-18T15:49:29;22.17;;;12.73;;
57395;SDS011;43222;52.912;6.940;2022-12-18T15:51:56;20.48;;;12.20;;
57395;SDS011;43222;52.912;6.940;2022-12-18T15:54:23;20.45;;;11.05;;
57395;SDS011;43222;52.912;6.940;2022-12-18T15:57:11;17.75;;;10.57;;
57395;SDS011;43222;52.912;6.940;2022-12-18T15:59:51;16.63;;;10.82;;
57395;SDS011;43222;52.912;6.940;2022-12-18T16:02:18;17.73;;;10.40;;
57395;SDS011;43222;52.912;6.940;2022-12-18T16:04:44;19.90;;;11.35;;
57395;SDS011;43222;52.912;6.940;2022-12-18T16:07:13;18.30;;;11.32;;
57395;SDS011;43222;52.912;6.940;2022-12-18T16:09:39;18.77;;;11.18;;
57395;SDS011;43222;52.912;6.940;2022-12-18T16:12:06;19.70;;;11.52;;
57395;SDS011;43222;52.912;6.940;2022-12-18T16:14:32;19.67;;;10.50;;
57395;SDS011;43222;52.912;6.940;2022-12-18T16:16:59;18.73;;;11.38;;
57395;SDS011;43222;52.912;6.940;2022-12-18T16:19:26;19.30;;;11.05;;